Fort Worth Meacham International Airport
KFTW : now visible

Airfield :











YOU CAN JOIN US ON...

 
LOGIN :

Register | Disclaimer

   EN    FR    IT 

 









Legend :    VFR   Marginal VFR   IFR   Intensive IFR   Very Intensive IFR
Visi :
Ceiling :
>= 8 km
>= 3000ft
5 to 8 km
1000 to 3000 ft
1500m to 5 km
500 to 1000 ft
800 to 1500m
200 to 500 ft
< 800m
< 200 ft
Symbols :   Thunderstorms  Fog  Heavy snow  Heavy precipitations  Wind > 20 kt







- Airport Elevation : 710 ft
- IATA code : FTW


KFTW - Fort Worth Meacham International

CURRENT METAR :
  • 201553Z 16012G20KT 10SM FEW022 SCT027 OVC034 30/23 A2996 RMK AO2 SLP136 T03000233

EXPIRED METARs :
  • 201549Z 17013G20KT 10SM FEW022 SCT027 OVC037 29/23 A2996 RMK AO2
  • 201453Z 17014KT 10SM BKN017 OVC023 27/23 A2995 RMK AO2 SLP134 T02720233 53012
  • 201417Z 16011G20KT 10SM BKN015 27/23 A2994 RMK AO2 T02670233
  • 201353Z 18015G21KT 10SM BKN013 BKN034 26/23 A2993 RMK AO2 SLP126 T02610233

TAF KFTW
Valid from the 20 at 15:00 until the 21 at 12:00 UTC


201504Z 2015/2112 17013KT P6SM SCT015 BKN025 OVC050
TEMPO 2015/2018 BKN015
FM201800 17013KT P6SM BKN035
FM202100 17014KT P6SM VCTS BKN070CB
FM210000 15012KT P6SM SCT050
FM210800 17013KT P6SM OVC015
No reported NOTAMs for that airfield.



MET'MAP, your aeronautical weather chart ! - Copyright ORBIFLY December 2007 - Disclaimer

ORBIFLY MET'MAP TEAM :

Programming & Development : Alexandra Zaïnal
Concept & Development : Baudouin d'Aumeries
Co-Development & Prog : Marc-Olivier Méhu
Technical & hardware support : Manuel Goepfert

Contact : metmap@orbifly.com




SOURCES & CREDITS :

   NOAA       Earth
Advisory